createdAt,value
2023-03-13T00:01:28.374Z,1.55
2023-03-13T00:03:56.577Z,1.60
2023-03-13T00:06:26.696Z,1.92
2023-03-13T00:08:55.864Z,1.58
2023-03-13T00:11:23.570Z,2.00
2023-03-13T00:13:55.918Z,1.83
2023-03-13T00:16:24.170Z,2.22
2023-03-13T00:18:54.551Z,2.40
2023-03-13T00:21:25.503Z,2.00
2023-03-13T00:23:53.240Z,1.87
2023-03-13T00:26:23.284Z,2.03
2023-03-13T00:28:52.611Z,1.83
2023-03-13T00:31:26.425Z,1.37
2023-03-13T00:33:58.136Z,1.70
2023-03-13T00:36:28.065Z,1.65
2023-03-13T00:38:57.281Z,1.80
2023-03-13T00:41:30.155Z,1.70
2023-03-13T00:43:58.158Z,1.60
2023-03-13T00:46:28.108Z,1.70
2023-03-13T00:48:55.964Z,1.55
2023-03-13T00:51:28.000Z,1.52
2023-03-13T00:53:57.633Z,1.55
2023-03-13T00:56:25.435Z,1.50
2023-03-13T00:58:53.181Z,1.50
2023-03-13T01:01:25.403Z,1.90
2023-03-13T01:04:04.966Z,1.62
2023-03-13T01:06:34.345Z,2.50
2023-03-13T01:09:02.442Z,1.42
2023-03-13T01:11:34.947Z,1.35
2023-03-13T01:14:05.371Z,1.70
2023-03-13T01:16:35.224Z,1.42
2023-03-13T01:19:05.844Z,1.48
2023-03-13T01:21:33.638Z,1.85
2023-03-13T01:24:01.715Z,1.83
2023-03-13T01:26:29.908Z,1.42
2023-03-13T01:28:58.266Z,1.75
2023-03-13T01:31:30.033Z,1.50
2023-03-13T01:34:03.693Z,1.30
2023-03-13T01:36:31.956Z,1.20
2023-03-13T01:39:01.346Z,1.60
2023-03-13T01:41:31.544Z,1.50
2023-03-13T01:43:59.947Z,2.00
2023-03-13T01:46:29.401Z,1.45
2023-03-13T01:48:57.101Z,1.40
2023-03-13T01:51:27.830Z,1.45
2023-03-13T01:54:34.010Z,1.45
2023-03-13T01:57:28.031Z,1.40
2023-03-13T02:00:02.844Z,1.40
2023-03-13T02:02:31.501Z,1.30
2023-03-13T02:05:04.379Z,1.73
2023-03-13T02:07:40.273Z,1.62
2023-03-13T02:10:10.191Z,1.23
2023-03-13T02:12:41.000Z,1.30
2023-03-13T02:15:11.519Z,1.10
2023-03-13T02:17:40.651Z,1.30
2023-03-13T02:20:09.102Z,1.60
2023-03-13T02:22:48.850Z,1.15
2023-03-13T02:25:25.562Z,2.67
2023-03-13T02:28:01.500Z,1.80
2023-03-13T02:30:29.653Z,1.58
2023-03-13T02:32:57.698Z,1.30
2023-03-13T02:35:25.504Z,1.50
2023-03-13T02:37:58.160Z,1.25
2023-03-13T02:40:30.542Z,1.40
2023-03-13T02:43:01.708Z,1.52
2023-03-13T02:45:29.771Z,1.40
2023-03-13T02:47:57.431Z,1.33
2023-03-13T02:50:25.626Z,1.60
2023-03-13T02:53:04.811Z,1.60
2023-03-13T02:55:39.565Z,1.95
2023-03-13T02:58:07.419Z,1.60
2023-03-13T03:00:35.425Z,1.55
2023-03-13T03:03:03.116Z,1.55
2023-03-13T03:05:30.803Z,1.67
2023-03-13T03:07:58.454Z,1.35
2023-03-13T03:10:26.218Z,1.75
2023-03-13T03:12:54.020Z,1.33
2023-03-13T03:15:21.801Z,1.37
2023-03-13T03:17:49.437Z,1.40
2023-03-13T03:20:17.069Z,1.62
2023-03-13T03:22:44.763Z,1.42
2023-03-13T03:25:12.455Z,1.30
2023-03-13T03:27:40.193Z,1.50
2023-03-13T03:30:08.530Z,1.20
2023-03-13T03:32:36.355Z,1.10
2023-03-13T03:35:04.309Z,1.37
2023-03-13T03:37:32.047Z,1.15
2023-03-13T03:39:59.731Z,1.10
2023-03-13T03:42:27.426Z,1.12
2023-03-13T03:44:55.109Z,1.00
2023-03-13T03:47:23.036Z,1.00
2023-03-13T03:49:50.760Z,1.00
2023-03-13T03:52:18.543Z,0.80
2023-03-13T03:54:46.267Z,0.90
2023-03-13T03:57:14.008Z,1.15
2023-03-13T03:59:41.732Z,1.10
2023-03-13T04:02:09.570Z,0.80
2023-03-13T04:04:37.370Z,0.90
2023-03-13T04:07:05.196Z,1.05
2023-03-13T04:09:33.014Z,1.10
2023-03-13T04:12:00.759Z,1.00
2023-03-13T04:14:28.384Z,1.02
2023-03-13T04:16:56.074Z,1.10
2023-03-13T04:19:23.984Z,1.17
2023-03-13T04:21:51.778Z,1.00
2023-03-13T04:24:19.552Z,1.10
2023-03-13T04:26:47.326Z,1.08
2023-03-13T04:29:15.045Z,1.00
2023-03-13T04:31:42.675Z,0.82
2023-03-13T04:34:10.382Z,0.80
2023-03-13T04:36:38.088Z,1.10
2023-03-13T04:39:05.891Z,1.30
2023-03-13T04:41:33.567Z,0.90
2023-03-13T04:44:01.257Z,1.10
2023-03-13T04:46:29.104Z,0.93
2023-03-13T04:48:56.850Z,0.80
2023-03-13T04:51:24.523Z,1.02
2023-03-13T04:53:52.301Z,0.65
2023-03-13T04:56:41.609Z,0.70
2023-03-13T04:59:13.173Z,0.90
2023-03-13T05:01:41.631Z,0.90
2023-03-13T05:04:09.799Z,0.90
2023-03-13T05:06:37.586Z,0.80
2023-03-13T05:09:05.626Z,1.00
2023-03-13T05:11:33.759Z,1.23
2023-03-13T05:14:01.430Z,1.00
2023-03-13T05:16:29.321Z,0.90
2023-03-13T05:18:57.080Z,1.05
2023-03-13T05:21:24.847Z,0.80
2023-03-13T05:23:52.602Z,0.57
2023-03-13T05:26:20.284Z,0.73
2023-03-13T05:28:48.013Z,1.12
2023-03-13T05:31:15.846Z,0.85
2023-03-13T05:33:43.593Z,0.80
2023-03-13T05:36:11.349Z,1.08
2023-03-13T05:38:39.084Z,0.85
2023-03-13T05:41:06.761Z,0.60
2023-03-13T05:43:34.430Z,0.80
2023-03-13T05:46:02.207Z,1.10
2023-03-13T05:48:29.927Z,0.62
2023-03-13T05:50:57.581Z,0.88
2023-03-13T05:53:25.332Z,1.02
2023-03-13T05:55:53.065Z,1.15
2023-03-13T05:58:20.775Z,0.85
2023-03-13T06:00:49.772Z,0.93
2023-03-13T06:03:17.407Z,1.10
2023-03-13T06:05:45.115Z,0.98
2023-03-13T06:08:12.941Z,1.02
2023-03-13T06:10:40.601Z,0.73
2023-03-13T06:13:19.428Z,0.77
2023-03-13T06:15:58.502Z,0.95
2023-03-13T06:18:28.159Z,0.70
2023-03-13T06:21:03.315Z,0.90
2023-03-13T06:23:31.063Z,1.20
2023-03-13T06:25:58.785Z,0.95
2023-03-13T06:28:26.454Z,1.00
2023-03-13T06:30:54.213Z,0.70
2023-03-13T06:33:22.606Z,0.80
2023-03-13T06:35:56.693Z,1.00
2023-03-13T06:38:29.142Z,1.27
2023-03-13T06:40:57.273Z,0.77
2023-03-13T06:43:25.298Z,1.52
2023-03-13T06:45:53.211Z,1.30
2023-03-13T06:48:21.406Z,1.30
2023-03-13T06:50:49.114Z,1.10
2023-03-13T06:53:19.818Z,1.00
2023-03-13T06:55:48.290Z,1.25
2023-03-13T06:58:31.111Z,1.10
2023-03-13T07:01:00.497Z,0.98
2023-03-13T07:03:28.269Z,0.90
2023-03-13T07:05:59.653Z,1.00
2023-03-13T07:08:27.836Z,1.10
2023-03-13T07:10:59.728Z,1.20
2023-03-13T07:13:27.779Z,0.93
2023-03-13T07:15:55.954Z,0.90
2023-03-13T07:18:24.432Z,1.05
2023-03-13T07:20:56.915Z,1.00
2023-03-13T07:23:26.129Z,0.98
2023-03-13T07:26:01.580Z,0.85
2023-03-13T07:28:31.853Z,0.62
2023-03-13T07:31:14.710Z,1.15
2023-03-13T07:33:42.785Z,0.77
2023-03-13T07:36:11.352Z,0.95
2023-03-13T07:38:39.359Z,1.48
2023-03-13T07:41:07.367Z,0.77
2023-03-13T07:43:35.119Z,0.52
2023-03-13T07:46:07.399Z,0.80
2023-03-13T07:48:40.465Z,0.70
2023-03-13T07:51:12.788Z,0.70
2023-03-13T07:53:40.562Z,0.70
2023-03-13T07:56:11.431Z,0.80
2023-03-13T07:58:40.962Z,0.82
2023-03-13T08:01:18.616Z,0.65
2023-03-13T08:03:50.319Z,0.80
2023-03-13T08:06:24.526Z,0.80
2023-03-13T08:08:53.532Z,1.05
2023-03-13T08:11:25.989Z,0.85
2023-03-13T08:13:54.802Z,1.08
2023-03-13T08:16:24.950Z,1.20
2023-03-13T08:18:56.256Z,1.02
2023-03-13T08:21:26.659Z,0.85
2023-03-13T08:23:56.577Z,1.00
2023-03-13T08:26:26.459Z,1.33
2023-03-13T08:28:59.820Z,0.80
2023-03-13T08:31:33.415Z,0.85
2023-03-13T08:34:01.580Z,0.60
2023-03-13T08:36:32.521Z,0.60
2023-03-13T08:39:03.071Z,0.70
2023-03-13T08:41:34.945Z,0.60
2023-03-13T08:44:03.488Z,0.75
2023-03-13T08:46:32.878Z,0.80
2023-03-13T08:49:00.968Z,0.60
2023-03-13T08:51:30.132Z,0.65
2023-03-13T08:53:58.256Z,0.77
2023-03-13T08:56:29.094Z,0.90
2023-03-13T08:58:59.915Z,0.65
2023-03-13T09:01:30.241Z,0.80
2023-03-13T09:03:58.387Z,0.70
2023-03-13T09:06:26.685Z,0.95
2023-03-13T09:08:54.453Z,0.80
2023-03-13T09:11:22.940Z,0.80
2023-03-13T09:13:52.142Z,0.98
2023-03-13T09:16:26.080Z,0.70
2023-03-13T09:18:55.138Z,0.60
2023-03-13T09:21:25.701Z,0.60
2023-03-13T09:23:53.743Z,0.80
2023-03-13T09:26:23.490Z,0.82
2023-03-13T09:28:52.901Z,0.80
2023-03-13T09:31:32.132Z,0.80
2023-03-13T09:34:00.944Z,0.73
2023-03-13T09:36:29.764Z,0.90
2023-03-13T09:39:00.048Z,0.68
2023-03-13T09:41:45.042Z,0.70
2023-03-13T09:44:20.767Z,0.60
2023-03-13T09:46:54.164Z,0.80
2023-03-13T09:49:43.535Z,0.80
2023-03-13T09:52:20.543Z,0.60
2023-03-13T09:54:55.683Z,0.90
2023-03-13T09:58:05.401Z,0.70
2023-03-13T10:00:40.606Z,0.77
2023-03-13T10:03:14.307Z,0.80
2023-03-13T10:05:49.092Z,0.68
2023-03-13T10:08:28.850Z,0.88
2023-03-13T10:11:16.243Z,0.70
2023-03-13T10:14:29.115Z,0.60
2023-03-13T10:17:21.186Z,0.52
2023-03-13T10:19:56.985Z,1.12
2023-03-13T10:22:27.912Z,0.70
2023-03-13T10:25:00.717Z,0.60
2023-03-13T10:27:28.502Z,1.25
2023-03-13T10:29:56.214Z,0.68
2023-03-13T10:32:23.943Z,0.65
2023-03-13T10:34:56.650Z,0.70
2023-03-13T10:37:27.773Z,0.80
2023-03-13T10:39:56.702Z,0.82
2023-03-13T10:42:36.774Z,0.90
2023-03-13T10:45:07.104Z,0.60
2023-03-13T10:47:36.488Z,0.80
2023-03-13T10:50:05.992Z,0.70
2023-03-13T10:52:45.359Z,0.70
2023-03-13T10:55:21.107Z,0.75
2023-03-13T10:58:04.086Z,0.62
2023-03-13T11:00:34.691Z,0.60
2023-03-13T11:03:07.266Z,0.70
2023-03-13T11:05:42.151Z,0.60
2023-03-13T11:08:30.280Z,0.73
2023-03-13T11:11:01.299Z,0.52
2023-03-13T11:13:38.034Z,0.70
2023-03-13T11:16:24.629Z,0.70
2023-03-13T11:19:09.318Z,0.70
2023-03-13T11:21:55.821Z,0.88
2023-03-13T11:24:40.357Z,0.70
2023-03-13T11:27:31.454Z,0.80
2023-03-13T11:30:14.484Z,0.68
2023-03-13T11:33:02.778Z,0.70
2023-03-13T11:35:45.766Z,0.60
2023-03-13T11:38:45.391Z,0.70
2023-03-13T11:41:54.467Z,0.55
2023-03-13T11:44:58.267Z,0.50
2023-03-13T11:47:52.308Z,0.70
2023-03-13T11:50:25.282Z,0.60
2023-03-13T11:53:21.252Z,0.82
2023-03-13T11:56:02.809Z,0.68
2023-03-13T11:59:04.057Z,0.65
2023-03-13T12:01:55.456Z,0.43
2023-03-13T12:04:39.836Z,0.60
2023-03-13T12:07:27.438Z,0.50
2023-03-13T12:10:15.647Z,0.62
2023-03-13T12:13:25.352Z,0.90
2023-03-13T12:15:57.927Z,0.50
2023-03-13T12:18:37.880Z,0.60
2023-03-13T12:21:20.540Z,0.60
2023-03-13T12:24:11.281Z,0.40
2023-03-13T12:26:48.054Z,0.60
2023-03-13T12:29:38.168Z,0.60
2023-03-13T12:32:19.533Z,0.50
2023-03-13T12:35:21.675Z,0.62
2023-03-13T12:38:03.729Z,0.80
2023-03-13T12:40:40.139Z,0.57
2023-03-13T12:43:12.738Z,0.70
2023-03-13T12:45:55.568Z,0.73
2023-03-13T12:48:29.197Z,0.80
2023-03-13T12:51:27.344Z,0.40
2023-03-13T12:54:10.282Z,0.75
2023-03-13T12:56:53.434Z,0.65
2023-03-13T12:59:28.746Z,0.60
2023-03-13T13:01:57.708Z,0.62
2023-03-13T13:04:29.583Z,0.50
2023-03-13T13:07:09.027Z,0.50
2023-03-13T13:10:02.256Z,0.50
2023-03-13T13:12:31.270Z,0.70
2023-03-13T13:15:05.001Z,0.50
2023-03-13T13:17:41.891Z,0.70
2023-03-13T13:20:31.707Z,0.60
2023-03-13T13:23:25.426Z,0.52
2023-03-13T13:25:54.813Z,0.68
2023-03-13T13:28:34.897Z,0.50
2023-03-13T13:31:03.501Z,0.40
2023-03-13T13:33:32.029Z,0.40
2023-03-13T13:36:11.656Z,0.40
2023-03-13T13:38:43.188Z,0.50
2023-03-13T13:41:10.867Z,0.50
2023-03-13T13:43:40.035Z,0.50
2023-03-13T13:46:24.652Z,0.50
2023-03-13T13:49:10.629Z,0.40
2023-03-13T13:51:42.670Z,0.88
2023-03-13T13:54:19.394Z,0.60
2023-03-13T13:56:56.272Z,0.50
2023-03-13T13:59:32.010Z,0.60
2023-03-13T14:02:33.334Z,0.52
2023-03-13T14:05:17.175Z,0.40
2023-03-13T14:08:09.539Z,0.70
2023-03-13T14:10:43.381Z,0.43
2023-03-13T14:13:16.282Z,0.73
2023-03-13T14:15:46.831Z,0.47
2023-03-13T14:18:31.908Z,0.60
2023-03-13T14:21:02.461Z,0.60
2023-03-13T14:23:43.848Z,0.80
2023-03-13T14:26:11.794Z,0.75
2023-03-13T14:28:44.718Z,0.77
2023-03-13T14:31:23.377Z,1.10
2023-03-13T14:33:51.495Z,1.05
2023-03-13T14:36:19.570Z,1.00
2023-03-13T14:38:59.212Z,0.80
2023-03-13T14:41:44.106Z,0.90
2023-03-13T14:44:26.870Z,0.98
2023-03-13T14:46:58.081Z,1.00
2023-03-13T14:49:28.601Z,0.93
2023-03-13T14:52:05.650Z,0.90
2023-03-13T14:54:39.164Z,0.80
2023-03-13T14:57:17.393Z,1.00
2023-03-13T14:59:45.570Z,0.70
2023-03-13T15:02:19.365Z,0.70
2023-03-13T15:05:04.939Z,0.80
2023-03-13T15:07:42.435Z,0.80
2023-03-13T15:10:20.206Z,0.73
2023-03-13T15:12:48.065Z,0.80
2023-03-13T15:15:15.894Z,0.80
2023-03-13T15:17:43.822Z,1.12
2023-03-13T15:20:14.839Z,0.85
2023-03-13T15:22:45.380Z,1.02
2023-03-13T15:25:23.849Z,0.80
2023-03-13T15:27:52.340Z,0.60
2023-03-13T15:30:24.659Z,0.60
2023-03-13T15:32:53.239Z,0.60
2023-03-13T15:35:34.465Z,0.57
2023-03-13T15:38:03.888Z,0.60
2023-03-13T15:40:33.208Z,0.80
2023-03-13T15:43:01.443Z,0.70
2023-03-13T15:45:29.303Z,0.88
2023-03-13T15:47:57.126Z,0.75
2023-03-13T15:50:30.975Z,0.70
2023-03-13T15:53:01.970Z,0.70
2023-03-13T15:55:30.551Z,0.70
2023-03-13T15:57:58.407Z,0.73
2023-03-13T16:00:27.296Z,0.60
2023-03-13T16:02:54.996Z,0.80
2023-03-13T16:05:22.795Z,0.90
2023-03-13T16:07:50.546Z,1.15
2023-03-13T16:10:26.998Z,0.70
2023-03-13T16:12:55.587Z,0.90
2023-03-13T16:15:23.475Z,0.80
2023-03-13T16:17:51.814Z,0.70
2023-03-13T16:20:22.754Z,0.65
2023-03-13T16:22:53.408Z,0.80
2023-03-13T16:25:21.428Z,0.73
2023-03-13T16:27:49.492Z,1.00
2023-03-13T16:30:25.436Z,0.90
2023-03-13T16:32:53.472Z,0.70
2023-03-13T16:35:21.712Z,0.90
2023-03-13T16:37:51.903Z,0.80
2023-03-13T16:40:25.298Z,0.75
2023-03-13T16:42:53.270Z,0.70
2023-03-13T16:45:21.145Z,0.60
2023-03-13T16:47:49.323Z,0.80
2023-03-13T16:50:33.653Z,0.70
2023-03-13T16:53:02.143Z,0.70
2023-03-13T16:55:31.530Z,0.80
2023-03-13T16:58:00.042Z,0.88
2023-03-13T17:00:30.363Z,0.65
2023-03-13T17:02:59.852Z,0.80
2023-03-13T17:05:28.187Z,0.60
2023-03-13T17:07:56.482Z,0.77
2023-03-13T17:10:25.425Z,0.90
2023-03-13T17:12:53.464Z,1.50
2023-03-13T17:15:21.466Z,0.85
2023-03-13T17:17:52.764Z,0.73
2023-03-13T17:20:26.098Z,1.40
2023-03-13T17:22:54.844Z,0.90
2023-03-13T17:25:23.251Z,1.10
2023-03-13T17:27:52.751Z,1.02
2023-03-13T17:30:29.433Z,1.40
2023-03-13T17:32:57.815Z,1.23
2023-03-13T17:35:26.976Z,1.33
2023-03-13T17:37:54.916Z,0.80
2023-03-13T17:40:26.104Z,1.02
2023-03-13T17:42:54.319Z,1.10
2023-03-13T17:45:22.206Z,1.02
2023-03-13T17:47:52.630Z,1.20
2023-03-13T17:50:24.877Z,1.17
2023-03-13T17:52:52.577Z,1.05
2023-03-13T17:55:20.850Z,1.00
2023-03-13T17:57:53.267Z,1.25
2023-03-13T18:00:27.212Z,1.65
2023-03-13T18:02:54.923Z,1.70
2023-03-13T18:05:23.264Z,1.70
2023-03-13T18:07:51.727Z,1.33
2023-03-13T18:10:23.030Z,1.30
2023-03-13T18:12:52.481Z,1.50
2023-03-13T18:15:21.683Z,1.50
2023-03-13T18:17:50.059Z,1.52
2023-03-13T18:20:21.005Z,1.60
2023-03-13T18:22:49.036Z,1.65
2023-03-13T18:25:17.057Z,1.33
2023-03-13T18:27:44.945Z,1.98
2023-03-13T18:30:20.083Z,2.00
2023-03-13T18:32:48.037Z,2.70
2023-03-13T18:35:16.632Z,2.33
2023-03-13T18:37:46.451Z,3.03
2023-03-13T18:40:40.606Z,2.75
2023-03-13T18:43:08.304Z,3.05
2023-03-13T18:45:37.441Z,3.12
2023-03-13T18:48:05.258Z,3.28
2023-03-13T18:50:33.704Z,6.30
2023-03-13T18:53:01.734Z,5.10
2023-03-13T18:55:31.432Z,5.55
2023-03-13T18:57:59.107Z,4.15
2023-03-13T19:00:31.050Z,4.30
2023-03-13T19:02:58.889Z,4.32
2023-03-13T19:05:26.702Z,4.40
2023-03-13T19:07:54.663Z,4.57
2023-03-13T19:10:31.236Z,5.62
2023-03-13T19:12:58.997Z,9.57
2023-03-13T19:15:29.857Z,9.68
2023-03-13T19:18:03.063Z,8.30
2023-03-13T19:20:31.231Z,8.65
2023-03-13T19:23:01.629Z,6.65
2023-03-13T19:25:30.455Z,5.78
2023-03-13T19:27:58.228Z,5.85
2023-03-13T19:30:27.103Z,4.18
2023-03-13T19:32:54.932Z,4.93
2023-03-13T19:35:22.892Z,3.75
2023-03-13T19:37:51.055Z,4.22
2023-03-13T19:40:22.216Z,4.20
2023-03-13T19:42:50.001Z,4.43
2023-03-13T19:45:22.902Z,3.70
2023-03-13T19:47:50.702Z,3.62
2023-03-13T19:50:24.601Z,3.78
2023-03-13T19:52:52.285Z,4.65
2023-03-13T19:55:20.417Z,5.05
2023-03-13T19:57:48.126Z,4.65
2023-03-13T20:00:28.513Z,5.12
2023-03-13T20:02:56.698Z,5.28
2023-03-13T20:05:25.216Z,3.78
2023-03-13T20:07:55.003Z,3.97
2023-03-13T20:10:23.374Z,3.92
2023-03-13T20:12:51.104Z,4.20
2023-03-13T20:15:19.163Z,4.12
2023-03-13T20:17:46.938Z,3.45
2023-03-13T20:20:15.049Z,3.58
2023-03-13T20:22:43.164Z,3.90
2023-03-13T20:25:11.938Z,3.50
2023-03-13T20:27:40.495Z,3.08
2023-03-13T20:30:09.064Z,2.65
2023-03-13T20:32:39.480Z,2.20
2023-03-13T20:35:15.277Z,1.98
2023-03-13T20:37:43.027Z,2.42
2023-03-13T20:40:14.464Z,2.30
2023-03-13T20:42:42.245Z,1.67
2023-03-13T20:45:10.882Z,1.35
2023-03-13T20:47:38.703Z,1.60
2023-03-13T20:50:06.810Z,1.30
2023-03-13T20:52:34.590Z,1.00
2023-03-13T20:55:02.283Z,0.93
2023-03-13T20:57:30.212Z,1.05
2023-03-13T20:59:58.081Z,1.08
2023-03-13T21:02:25.776Z,0.70
2023-03-13T21:04:53.854Z,0.93
2023-03-13T21:07:22.270Z,0.77
2023-03-13T21:09:50.061Z,0.80
2023-03-13T21:12:17.807Z,0.68
2023-03-13T21:14:45.960Z,0.60
2023-03-13T21:17:14.583Z,0.90
2023-03-13T21:19:44.165Z,0.60
2023-03-13T21:22:12.750Z,0.62
2023-03-13T21:24:40.794Z,0.70
2023-03-13T21:27:08.493Z,0.80
2023-03-13T21:29:36.429Z,0.60
2023-03-13T21:32:04.155Z,0.65
2023-03-13T21:34:32.048Z,0.90
2023-03-13T21:36:59.838Z,0.60
2023-03-13T21:39:27.545Z,0.80
2023-03-13T21:41:55.483Z,0.65
2023-03-13T21:44:23.725Z,0.60
2023-03-13T21:46:53.489Z,0.50
2023-03-13T21:49:21.365Z,0.65
2023-03-13T21:51:49.019Z,0.80
2023-03-13T21:54:16.736Z,0.40
2023-03-13T21:56:44.413Z,0.50
2023-03-13T21:59:12.140Z,0.60
2023-03-13T22:01:39.817Z,0.62
2023-03-13T22:04:07.481Z,0.75
2023-03-13T22:06:35.458Z,0.55
2023-03-13T22:09:04.870Z,0.60
2023-03-13T22:11:33.353Z,0.60
2023-03-13T22:14:01.022Z,0.75
2023-03-13T22:16:29.495Z,0.70
2023-03-13T22:18:57.253Z,0.73
2023-03-13T22:21:25.395Z,0.88
2023-03-13T22:23:53.109Z,1.05
2023-03-13T22:26:20.866Z,0.65
2023-03-13T22:28:48.597Z,0.80
2023-03-13T22:31:16.507Z,0.52
2023-03-13T22:33:44.235Z,0.70
2023-03-13T22:36:12.238Z,1.10
2023-03-13T22:38:40.968Z,0.80
2023-03-13T22:41:12.437Z,1.10
2023-03-13T22:43:40.301Z,0.90
2023-03-13T22:46:08.470Z,0.80
2023-03-13T22:48:37.305Z,0.70
2023-03-13T22:51:10.879Z,0.80
2023-03-13T22:53:40.755Z,0.50
2023-03-13T22:56:13.068Z,0.60
2023-03-13T22:58:42.027Z,1.10
2023-03-13T23:01:12.026Z,0.90
2023-03-13T23:03:39.820Z,0.85
2023-03-13T23:06:16.494Z,0.85
2023-03-13T23:08:44.160Z,0.70
2023-03-13T23:11:12.347Z,0.95
2023-03-13T23:13:40.212Z,0.80
2023-03-13T23:16:10.010Z,0.70
2023-03-13T23:18:39.243Z,0.80
2023-03-13T23:21:09.483Z,1.05
2023-03-13T23:23:37.945Z,0.80
2023-03-13T23:26:09.633Z,0.62
2023-03-13T23:28:38.782Z,0.55
2023-03-13T23:31:18.224Z,0.50
2023-03-13T23:33:46.720Z,0.35
2023-03-13T23:36:17.703Z,0.35
2023-03-13T23:38:49.121Z,0.50
2023-03-13T23:41:16.853Z,0.40
2023-03-13T23:43:44.576Z,0.60
2023-03-13T23:46:23.482Z,0.47
2023-03-13T23:48:56.052Z,0.50
2023-03-13T23:51:24.609Z,0.43
2023-03-13T23:53:52.854Z,0.70
2023-03-13T23:56:20.720Z,0.82
2023-03-13T23:58:48.486Z,0.43
